sensor_id;sensor_type;location;lat;lon;timestamp;P1;durP1;ratioP1;P2;durP2;ratioP2
24151;SDS011;12311;50.866;4.332;2023-02-13T00:02:05;34.78;;;11.88;;
24151;SDS011;12311;50.866;4.332;2023-02-13T00:04:30;24.77;;;8.05;;
24151;SDS011;12311;50.866;4.332;2023-02-13T00:06:56;28.35;;;11.00;;
24151;SDS011;12311;50.866;4.332;2023-02-13T00:09:22;37.30;;;12.27;;
24151;SDS011;12311;50.866;4.332;2023-02-13T00:11:47;27.25;;;10.07;;
24151;SDS011;12311;50.866;4.332;2023-02-13T00:14:13;27.15;;;11.05;;
24151;SDS011;12311;50.866;4.332;2023-02-13T00:16:39;32.15;;;10.48;;
24151;SDS011;12311;50.866;4.332;2023-02-13T00:19:04;26.17;;;9.95;;
24151;SDS011;12311;50.866;4.332;2023-02-13T00:21:30;29.00;;;9.48;;
24151;SDS011;12311;50.866;4.332;2023-02-13T00:23:56;27.17;;;10.00;;
24151;SDS011;12311;50.866;4.332;2023-02-13T00:26:21;25.90;;;11.10;;
24151;SDS011;12311;50.866;4.332;2023-02-13T00:28:47;27.98;;;8.77;;
24151;SDS011;12311;50.866;4.332;2023-02-13T00:31:14;28.42;;;9.63;;
24151;SDS011;12311;50.866;4.332;2023-02-13T00:33:41;32.15;;;10.25;;
24151;SDS011;12311;50.866;4.332;2023-02-13T00:36:08;25.52;;;9.15;;
24151;SDS011;12311;50.866;4.332;2023-02-13T00:38:36;27.83;;;10.23;;
24151;SDS011;12311;50.866;4.332;2023-02-13T00:41:03;40.47;;;11.35;;
24151;SDS011;12311;50.866;4.332;2023-02-13T00:43:29;26.15;;;9.50;;
24151;SDS011;12311;50.866;4.332;2023-02-13T00:45:55;28.65;;;11.20;;
24151;SDS011;12311;50.866;4.332;2023-02-13T00:48:22;29.83;;;10.77;;
24151;SDS011;12311;50.866;4.332;2023-02-13T00:50:52;34.63;;;11.10;;
24151;SDS011;12311;50.866;4.332;2023-02-13T00:53:19;28.30;;;9.98;;
24151;SDS011;12311;50.866;4.332;2023-02-13T00:55:45;28.17;;;10.32;;
24151;SDS011;12311;50.866;4.332;2023-02-13T00:58:12;32.90;;;10.30;;
24151;SDS011;12311;50.866;4.332;2023-02-13T01:00:37;30.15;;;11.52;;
24151;SDS011;12311;50.866;4.332;2023-02-13T01:03:03;30.00;;;12.25;;
24151;SDS011;12311;50.866;4.332;2023-02-13T01:05:29;31.83;;;11.57;;
24151;SDS011;12311;50.866;4.332;2023-02-13T01:07:55;40.42;;;10.75;;
24151;SDS011;12311;50.866;4.332;2023-02-13T01:10:20;34.22;;;12.15;;
24151;SDS011;12311;50.866;4.332;2023-02-13T01:12:46;30.58;;;9.38;;
24151;SDS011;12311;50.866;4.332;2023-02-13T01:15:12;28.75;;;10.60;;
24151;SDS011;12311;50.866;4.332;2023-02-13T01:17:38;35.95;;;13.52;;
24151;SDS011;12311;50.866;4.332;2023-02-13T01:20:05;28.27;;;9.55;;
24151;SDS011;12311;50.866;4.332;2023-02-13T01:22:31;36.38;;;12.05;;
24151;SDS011;12311;50.866;4.332;2023-02-13T01:24:57;31.75;;;10.15;;
24151;SDS011;12311;50.866;4.332;2023-02-13T01:27:22;29.25;;;10.07;;
24151;SDS011;12311;50.866;4.332;2023-02-13T01:29:48;26.30;;;10.15;;
24151;SDS011;12311;50.866;4.332;2023-02-13T01:32:14;31.25;;;10.75;;
24151;SDS011;12311;50.866;4.332;2023-02-13T01:34:39;27.33;;;10.63;;
24151;SDS011;12311;50.866;4.332;2023-02-13T01:37:05;28.98;;;10.45;;
24151;SDS011;12311;50.866;4.332;2023-02-13T01:39:31;26.30;;;11.35;;
24151;SDS011;12311;50.866;4.332;2023-02-13T01:41:56;32.40;;;10.32;;
24151;SDS011;12311;50.866;4.332;2023-02-13T01:47:12;21.02;;;8.40;;
24151;SDS011;12311;50.866;4.332;2023-02-13T01:49:40;29.98;;;9.25;;
24151;SDS011;12311;50.866;4.332;2023-02-13T01:52:09;31.85;;;10.07;;
24151;SDS011;12311;50.866;4.332;2023-02-13T01:54:36;33.95;;;11.23;;
24151;SDS011;12311;50.866;4.332;2023-02-13T01:57:24;28.48;;;10.55;;
24151;SDS011;12311;50.866;4.332;2023-02-13T01:59:52;29.23;;;10.07;;
24151;SDS011;12311;50.866;4.332;2023-02-13T02:02:21;30.63;;;12.30;;
24151;SDS011;12311;50.866;4.332;2023-02-13T02:04:47;28.27;;;10.05;;
24151;SDS011;12311;50.866;4.332;2023-02-13T02:07:22;29.60;;;11.05;;
24151;SDS011;12311;50.866;4.332;2023-02-13T02:09:51;32.28;;;11.10;;
24151;SDS011;12311;50.866;4.332;2023-02-13T02:12:22;31.75;;;10.80;;
24151;SDS011;12311;50.866;4.332;2023-02-13T02:15:07;36.55;;;11.15;;
24151;SDS011;12311;50.866;4.332;2023-02-13T02:17:33;28.83;;;10.55;;
24151;SDS011;12311;50.866;4.332;2023-02-13T02:23:09;21.80;;;10.55;;
24151;SDS011;12311;50.866;4.332;2023-02-13T02:34:36;19.20;;;8.65;;
24151;SDS011;12311;50.866;4.332;2023-02-13T02:45:07;30.60;;;10.50;;
24151;SDS011;12311;50.866;4.332;2023-02-13T02:56:25;22.70;;;8.43;;
24151;SDS011;12311;50.866;4.332;2023-02-13T02:59:11;38.58;;;10.63;;
24151;SDS011;12311;50.866;4.332;2023-02-13T03:01:59;29.02;;;12.43;;
24151;SDS011;12311;50.866;4.332;2023-02-13T03:04:48;31.00;;;12.50;;
24151;SDS011;12311;50.866;4.332;2023-02-13T03:07:36;29.33;;;12.25;;
24151;SDS011;12311;50.866;4.332;2023-02-13T03:10:06;39.45;;;11.55;;
24151;SDS011;12311;50.866;4.332;2023-02-13T03:15:45;31.60;;;10.23;;
24151;SDS011;12311;50.866;4.332;2023-02-13T03:18:33;38.88;;;12.18;;
24151;SDS011;12311;50.866;4.332;2023-02-13T03:21:31;26.33;;;10.88;;
24151;SDS011;12311;50.866;4.332;2023-02-13T03:24:43;34.35;;;11.30;;
24151;SDS011;12311;50.866;4.332;2023-02-13T03:27:40;21.52;;;10.07;;
24151;SDS011;12311;50.866;4.332;2023-02-13T03:33:29;30.98;;;10.70;;
24151;SDS011;12311;50.866;4.332;2023-02-13T03:41:57;27.05;;;10.68;;
24151;SDS011;12311;50.866;4.332;2023-02-13T03:47:10;33.75;;;11.27;;
24151;SDS011;12311;50.866;4.332;2023-02-13T03:49:45;20.60;;;9.88;;
24151;SDS011;12311;50.866;4.332;2023-02-13T03:52:34;28.48;;;10.43;;
24151;SDS011;12311;50.866;4.332;2023-02-13T03:55:27;31.20;;;10.25;;
24151;SDS011;12311;50.866;4.332;2023-02-13T03:58:22;28.42;;;9.52;;
24151;SDS011;12311;50.866;4.332;2023-02-13T04:01:10;25.23;;;10.38;;
24151;SDS011;12311;50.866;4.332;2023-02-13T04:03:44;32.80;;;10.90;;
24151;SDS011;12311;50.866;4.332;2023-02-13T04:06:20;26.40;;;9.48;;
24151;SDS011;12311;50.866;4.332;2023-02-13T04:08:51;30.48;;;10.60;;
24151;SDS011;12311;50.866;4.332;2023-02-13T04:11:20;36.20;;;10.52;;
24151;SDS011;12311;50.866;4.332;2023-02-13T04:16:34;20.02;;;9.02;;
24151;SDS011;12311;50.866;4.332;2023-02-13T04:19:06;41.83;;;13.07;;
24151;SDS011;12311;50.866;4.332;2023-02-13T04:21:34;32.33;;;11.95;;
24151;SDS011;12311;50.866;4.332;2023-02-13T04:24:01;26.80;;;9.52;;
24151;SDS011;12311;50.866;4.332;2023-02-13T04:26:31;29.33;;;8.35;;
24151;SDS011;12311;50.866;4.332;2023-02-13T04:29:00;27.45;;;10.05;;
24151;SDS011;12311;50.866;4.332;2023-02-13T04:31:26;29.63;;;10.85;;
24151;SDS011;12311;50.866;4.332;2023-02-13T04:33:51;23.40;;;9.70;;
24151;SDS011;12311;50.866;4.332;2023-02-13T04:36:17;27.30;;;10.63;;
24151;SDS011;12311;50.866;4.332;2023-02-13T04:38:43;27.77;;;10.10;;
24151;SDS011;12311;50.866;4.332;2023-02-13T04:41:09;26.92;;;9.55;;
24151;SDS011;12311;50.866;4.332;2023-02-13T04:43:35;32.05;;;11.10;;
24151;SDS011;12311;50.866;4.332;2023-02-13T04:46:01;32.95;;;11.82;;
24151;SDS011;12311;50.866;4.332;2023-02-13T04:48:27;30.48;;;10.90;;
24151;SDS011;12311;50.866;4.332;2023-02-13T04:50:53;38.50;;;11.35;;
24151;SDS011;12311;50.866;4.332;2023-02-13T04:53:18;25.80;;;8.85;;
24151;SDS011;12311;50.866;4.332;2023-02-13T04:55:44;23.42;;;9.57;;
24151;SDS011;12311;50.866;4.332;2023-02-13T04:58:10;24.15;;;9.65;;
24151;SDS011;12311;50.866;4.332;2023-02-13T05:00:36;28.23;;;8.65;;
24151;SDS011;12311;50.866;4.332;2023-02-13T05:03:05;27.42;;;9.93;;
24151;SDS011;12311;50.866;4.332;2023-02-13T05:05:32;32.85;;;10.65;;
24151;SDS011;12311;50.866;4.332;2023-02-13T05:07:58;30.17;;;9.30;;
24151;SDS011;12311;50.866;4.332;2023-02-13T05:10:24;28.52;;;9.30;;
24151;SDS011;12311;50.866;4.332;2023-02-13T05:12:50;22.50;;;9.02;;
24151;SDS011;12311;50.866;4.332;2023-02-13T05:15:16;30.88;;;11.45;;
24151;SDS011;12311;50.866;4.332;2023-02-13T05:17:42;21.02;;;9.25;;
24151;SDS011;12311;50.866;4.332;2023-02-13T05:20:09;21.52;;;9.48;;
24151;SDS011;12311;50.866;4.332;2023-02-13T05:22:35;25.40;;;10.25;;
24151;SDS011;12311;50.866;4.332;2023-02-13T05:25:20;30.00;;;10.02;;
24151;SDS011;12311;50.866;4.332;2023-02-13T05:27:45;28.13;;;10.60;;
24151;SDS011;12311;50.866;4.332;2023-02-13T05:30:11;23.95;;;10.88;;
24151;SDS011;12311;50.866;4.332;2023-02-13T05:32:37;24.52;;;8.63;;
24151;SDS011;12311;50.866;4.332;2023-02-13T05:35:03;19.80;;;9.13;;
24151;SDS011;12311;50.866;4.332;2023-02-13T05:37:29;29.83;;;9.18;;
24151;SDS011;12311;50.866;4.332;2023-02-13T05:39:55;23.83;;;10.70;;
24151;SDS011;12311;50.866;4.332;2023-02-13T05:42:21;24.27;;;10.77;;
24151;SDS011;12311;50.866;4.332;2023-02-13T05:44:46;27.15;;;10.25;;
24151;SDS011;12311;50.866;4.332;2023-02-13T05:47:12;23.38;;;9.43;;
24151;SDS011;12311;50.866;4.332;2023-02-13T05:49:38;18.95;;;8.75;;
24151;SDS011;12311;50.866;4.332;2023-02-13T05:52:03;48.25;;;11.60;;
24151;SDS011;12311;50.866;4.332;2023-02-13T05:54:29;29.15;;;9.13;;
24151;SDS011;12311;50.866;4.332;2023-02-13T05:56:54;20.58;;;8.85;;
24151;SDS011;12311;50.866;4.332;2023-02-13T05:59:20;30.42;;;9.45;;
24151;SDS011;12311;50.866;4.332;2023-02-13T06:01:46;22.88;;;10.15;;
24151;SDS011;12311;50.866;4.332;2023-02-13T06:04:11;27.88;;;11.27;;
24151;SDS011;12311;50.866;4.332;2023-02-13T06:06:37;29.40;;;10.70;;
24151;SDS011;12311;50.866;4.332;2023-02-13T06:09:03;27.15;;;9.45;;
24151;SDS011;12311;50.866;4.332;2023-02-13T06:11:29;32.63;;;11.43;;
24151;SDS011;12311;50.866;4.332;2023-02-13T06:13:54;24.35;;;9.30;;
24151;SDS011;12311;50.866;4.332;2023-02-13T06:16:20;23.10;;;9.63;;
24151;SDS011;12311;50.866;4.332;2023-02-13T06:18:46;35.90;;;12.45;;
24151;SDS011;12311;50.866;4.332;2023-02-13T06:21:12;29.13;;;10.15;;
24151;SDS011;12311;50.866;4.332;2023-02-13T06:23:38;18.45;;;8.85;;
24151;SDS011;12311;50.866;4.332;2023-02-13T06:26:04;28.10;;;11.00;;
24151;SDS011;12311;50.866;4.332;2023-02-13T06:28:31;20.23;;;9.55;;
24151;SDS011;12311;50.866;4.332;2023-02-13T06:30:58;22.30;;;8.90;;
24151;SDS011;12311;50.866;4.332;2023-02-13T06:33:23;18.15;;;8.38;;
24151;SDS011;12311;50.866;4.332;2023-02-13T06:35:49;17.88;;;8.85;;
24151;SDS011;12311;50.866;4.332;2023-02-13T06:38:15;19.77;;;7.97;;
24151;SDS011;12311;50.866;4.332;2023-02-13T06:40:47;24.80;;;8.75;;
24151;SDS011;12311;50.866;4.332;2023-02-13T06:43:13;18.00;;;9.45;;
24151;SDS011;12311;50.866;4.332;2023-02-13T06:45:40;22.80;;;8.65;;
24151;SDS011;12311;50.866;4.332;2023-02-13T06:48:06;22.33;;;9.40;;
24151;SDS011;12311;50.866;4.332;2023-02-13T06:50:32;18.75;;;8.40;;
24151;SDS011;12311;50.866;4.332;2023-02-13T06:52:58;23.08;;;8.70;;
24151;SDS011;12311;50.866;4.332;2023-02-13T06:55:24;24.65;;;9.63;;
24151;SDS011;12311;50.866;4.332;2023-02-13T06:57:50;18.63;;;9.07;;
24151;SDS011;12311;50.866;4.332;2023-02-13T07:00:16;15.23;;;8.50;;
24151;SDS011;12311;50.866;4.332;2023-02-13T07:02:43;23.02;;;8.65;;
24151;SDS011;12311;50.866;4.332;2023-02-13T07:05:10;34.42;;;8.50;;
24151;SDS011;12311;50.866;4.332;2023-02-13T07:07:37;21.65;;;9.00;;
24151;SDS011;12311;50.866;4.332;2023-02-13T07:10:06;18.42;;;7.75;;
24151;SDS011;12311;50.866;4.332;2023-02-13T07:12:33;18.02;;;8.20;;
24151;SDS011;12311;50.866;4.332;2023-02-13T07:15:00;18.00;;;7.95;;
24151;SDS011;12311;50.866;4.332;2023-02-13T07:17:27;19.77;;;9.00;;
24151;SDS011;12311;50.866;4.332;2023-02-13T07:19:53;27.35;;;9.85;;
24151;SDS011;12311;50.866;4.332;2023-02-13T07:22:18;40.55;;;9.02;;
24151;SDS011;12311;50.866;4.332;2023-02-13T07:24:44;20.10;;;8.32;;
24151;SDS011;12311;50.866;4.332;2023-02-13T07:27:09;18.33;;;8.10;;
24151;SDS011;12311;50.866;4.332;2023-02-13T07:29:35;27.52;;;8.60;;
24151;SDS011;12311;50.866;4.332;2023-02-13T07:32:01;21.70;;;10.35;;
24151;SDS011;12311;50.866;4.332;2023-02-13T07:34:26;22.85;;;8.52;;
24151;SDS011;12311;50.866;4.332;2023-02-13T07:36:52;20.80;;;8.30;;
24151;SDS011;12311;50.866;4.332;2023-02-13T07:39:18;22.27;;;8.75;;
24151;SDS011;12311;50.866;4.332;2023-02-13T07:41:43;30.80;;;9.85;;
24151;SDS011;12311;50.866;4.332;2023-02-13T07:44:09;26.05;;;9.65;;
24151;SDS011;12311;50.866;4.332;2023-02-13T07:46:35;24.42;;;9.02;;
24151;SDS011;12311;50.866;4.332;2023-02-13T07:49:01;21.35;;;7.82;;
24151;SDS011;12311;50.866;4.332;2023-02-13T07:51:27;21.80;;;9.73;;
24151;SDS011;12311;50.866;4.332;2023-02-13T07:53:53;23.58;;;9.30;;
24151;SDS011;12311;50.866;4.332;2023-02-13T07:56:19;20.50;;;8.50;;
24151;SDS011;12311;50.866;4.332;2023-02-13T07:58:45;18.98;;;9.50;;
24151;SDS011;12311;50.866;4.332;2023-02-13T08:01:12;26.33;;;9.18;;
24151;SDS011;12311;50.866;4.332;2023-02-13T08:03:39;23.20;;;9.07;;
24151;SDS011;12311;50.866;4.332;2023-02-13T08:06:05;20.85;;;7.70;;
24151;SDS011;12311;50.866;4.332;2023-02-13T08:08:31;35.92;;;11.18;;
24151;SDS011;12311;50.866;4.332;2023-02-13T08:11:01;25.20;;;8.20;;
24151;SDS011;12311;50.866;4.332;2023-02-13T08:13:48;29.20;;;8.63;;
24151;SDS011;12311;50.866;4.332;2023-02-13T08:16:14;28.08;;;9.18;;
24151;SDS011;12311;50.866;4.332;2023-02-13T08:18:40;28.30;;;9.90;;
24151;SDS011;12311;50.866;4.332;2023-02-13T08:21:05;33.50;;;11.75;;
24151;SDS011;12311;50.866;4.332;2023-02-13T08:23:31;23.00;;;9.30;;
24151;SDS011;12311;50.866;4.332;2023-02-13T08:26:00;25.58;;;8.77;;
24151;SDS011;12311;50.866;4.332;2023-02-13T08:28:27;37.35;;;11.25;;
24151;SDS011;12311;50.866;4.332;2023-02-13T08:30:53;27.88;;;12.85;;
24151;SDS011;12311;50.866;4.332;2023-02-13T08:33:19;27.25;;;11.52;;
24151;SDS011;12311;50.866;4.332;2023-02-13T08:35:45;27.65;;;9.57;;
24151;SDS011;12311;50.866;4.332;2023-02-13T08:38:11;33.17;;;9.02;;
24151;SDS011;12311;50.866;4.332;2023-02-13T08:40:36;21.52;;;8.98;;
24151;SDS011;12311;50.866;4.332;2023-02-13T08:43:03;21.25;;;8.20;;
24151;SDS011;12311;50.866;4.332;2023-02-13T08:45:29;26.52;;;8.48;;
24151;SDS011;12311;50.866;4.332;2023-02-13T08:47:57;18.33;;;7.97;;
24151;SDS011;12311;50.866;4.332;2023-02-13T08:50:23;26.10;;;9.38;;
24151;SDS011;12311;50.866;4.332;2023-02-13T08:52:50;19.50;;;7.70;;
24151;SDS011;12311;50.866;4.332;2023-02-13T08:55:15;19.88;;;8.30;;
24151;SDS011;12311;50.866;4.332;2023-02-13T08:57:41;17.73;;;9.10;;
24151;SDS011;12311;50.866;4.332;2023-02-13T09:00:07;27.58;;;8.55;;
24151;SDS011;12311;50.866;4.332;2023-02-13T09:02:33;19.90;;;6.97;;
24151;SDS011;12311;50.866;4.332;2023-02-13T09:04:59;24.40;;;9.18;;
24151;SDS011;12311;50.866;4.332;2023-02-13T09:07:24;20.95;;;6.40;;
24151;SDS011;12311;50.866;4.332;2023-02-13T09:09:50;25.08;;;8.40;;
24151;SDS011;12311;50.866;4.332;2023-02-13T09:12:16;16.42;;;6.72;;
24151;SDS011;12311;50.866;4.332;2023-02-13T09:14:41;17.10;;;6.88;;
24151;SDS011;12311;50.866;4.332;2023-02-13T09:17:07;24.50;;;9.15;;
24151;SDS011;12311;50.866;4.332;2023-02-13T09:19:33;21.20;;;8.15;;
24151;SDS011;12311;50.866;4.332;2023-02-13T09:21:58;30.05;;;7.60;;
24151;SDS011;12311;50.866;4.332;2023-02-13T09:24:24;20.67;;;7.32;;
24151;SDS011;12311;50.866;4.332;2023-02-13T09:26:50;17.73;;;7.25;;
24151;SDS011;12311;50.866;4.332;2023-02-13T09:29:16;24.50;;;8.50;;
24151;SDS011;12311;50.866;4.332;2023-02-13T09:31:41;25.10;;;8.57;;
24151;SDS011;12311;50.866;4.332;2023-02-13T09:34:07;17.17;;;7.70;;
24151;SDS011;12311;50.866;4.332;2023-02-13T09:36:32;26.75;;;8.00;;
24151;SDS011;12311;50.866;4.332;2023-02-13T09:39:00;24.52;;;10.35;;
24151;SDS011;12311;50.866;4.332;2023-02-13T09:41:39;18.42;;;6.93;;
24151;SDS011;12311;50.866;4.332;2023-02-13T09:46:58;22.45;;;7.65;;
24151;SDS011;12311;50.866;4.332;2023-02-13T09:49:45;46.50;;;13.63;;
24151;SDS011;12311;50.866;4.332;2023-02-13T09:52:13;28.98;;;10.02;;
24151;SDS011;12311;50.866;4.332;2023-02-13T09:54:39;20.85;;;7.15;;
24151;SDS011;12311;50.866;4.332;2023-02-13T10:00:06;18.13;;;7.78;;
24151;SDS011;12311;50.866;4.332;2023-02-13T10:11:32;19.90;;;6.95;;
24151;SDS011;12311;50.866;4.332;2023-02-13T10:14:55;13.88;;;5.63;;
24151;SDS011;12311;50.866;4.332;2023-02-13T10:17:35;15.32;;;5.93;;
24151;SDS011;12311;50.866;4.332;2023-02-13T10:26:03;13.90;;;6.20;;
24151;SDS011;12311;50.866;4.332;2023-02-13T10:31:59;17.92;;;6.72;;
24151;SDS011;12311;50.866;4.332;2023-02-13T10:34:30;16.60;;;6.57;;
24151;SDS011;12311;50.866;4.332;2023-02-13T10:37:02;13.88;;;5.82;;
24151;SDS011;12311;50.866;4.332;2023-02-13T10:39:32;13.02;;;5.22;;
24151;SDS011;12311;50.866;4.332;2023-02-13T11:03:01;16.23;;;6.07;;
24151;SDS011;12311;50.866;4.332;2023-02-13T11:05:32;16.52;;;5.55;;
24151;SDS011;12311;50.866;4.332;2023-02-13T11:08:02;13.32;;;5.15;;
24151;SDS011;12311;50.866;4.332;2023-02-13T11:10:38;15.38;;;5.45;;
24151;SDS011;12311;50.866;4.332;2023-02-13T11:13:23;13.98;;;4.75;;
24151;SDS011;12311;50.866;4.332;2023-02-13T11:15:58;14.52;;;5.45;;
24151;SDS011;12311;50.866;4.332;2023-02-13T11:18:30;14.68;;;6.13;;
24151;SDS011;12311;50.866;4.332;2023-02-13T11:21:20;20.35;;;6.65;;
24151;SDS011;12311;50.866;4.332;2023-02-13T11:23:51;13.13;;;4.65;;
24151;SDS011;12311;50.866;4.332;2023-02-13T11:26:23;13.98;;;4.78;;
24151;SDS011;12311;50.866;4.332;2023-02-13T11:28:52;12.88;;;4.75;;
24151;SDS011;12311;50.866;4.332;2023-02-13T11:31:27;12.18;;;4.72;;
24151;SDS011;12311;50.866;4.332;2023-02-13T11:33:54;10.98;;;4.72;;
24151;SDS011;12311;50.866;4.332;2023-02-13T11:36:25;15.70;;;4.55;;
24151;SDS011;12311;50.866;4.332;2023-02-13T11:39:03;12.70;;;5.35;;
24151;SDS011;12311;50.866;4.332;2023-02-13T11:41:35;12.65;;;4.95;;
24151;SDS011;12311;50.866;4.332;2023-02-13T11:44:06;15.18;;;5.40;;
24151;SDS011;12311;50.866;4.332;2023-02-13T11:46:49;10.13;;;4.57;;
24151;SDS011;12311;50.866;4.332;2023-02-13T11:51:59;11.23;;;4.05;;
24151;SDS011;12311;50.866;4.332;2023-02-13T11:54:31;12.98;;;5.53;;
24151;SDS011;12311;50.866;4.332;2023-02-13T11:57:41;14.07;;;4.60;;
24151;SDS011;12311;50.866;4.332;2023-02-13T11:59:55;12.57;;;4.63;;
24151;SDS011;12311;50.866;4.332;2023-02-13T12:02:22;11.80;;;5.28;;
24151;SDS011;12311;50.866;4.332;2023-02-13T12:04:52;14.50;;;4.72;;
24151;SDS011;12311;50.866;4.332;2023-02-13T12:07:36;11.10;;;4.57;;
24151;SDS011;12311;50.866;4.332;2023-02-13T12:10:07;12.30;;;4.70;;
24151;SDS011;12311;50.866;4.332;2023-02-13T12:15:32;12.93;;;4.93;;
24151;SDS011;12311;50.866;4.332;2023-02-13T12:20:52;15.55;;;4.90;;
24151;SDS011;12311;50.866;4.332;2023-02-13T12:26:21;14.70;;;4.95;;
24151;SDS011;12311;50.866;4.332;2023-02-13T12:29:15;13.23;;;6.25;;
24151;SDS011;12311;50.866;4.332;2023-02-13T12:48:43;13.40;;;4.90;;
24151;SDS011;12311;50.866;4.332;2023-02-13T12:51:58;11.82;;;5.50;;
24151;SDS011;12311;50.866;4.332;2023-02-13T12:54:35;11.20;;;4.28;;
24151;SDS011;12311;50.866;4.332;2023-02-13T13:03:08;13.18;;;4.70;;
24151;SDS011;12311;50.866;4.332;2023-02-13T13:11:31;10.75;;;3.97;;
24151;SDS011;12311;50.866;4.332;2023-02-13T13:16:53;11.00;;;4.03;;
24151;SDS011;12311;50.866;4.332;2023-02-13T13:24:52;8.55;;;3.30;;
24151;SDS011;12311;50.866;4.332;2023-02-13T13:27:26;10.40;;;4.10;;
24151;SDS011;12311;50.866;4.332;2023-02-13T13:32:29;8.02;;;3.17;;
24151;SDS011;12311;50.866;4.332;2023-02-13T13:34:57;5.82;;;3.10;;
24151;SDS011;12311;50.866;4.332;2023-02-13T13:37:44;10.82;;;4.47;;
24151;SDS011;12311;50.866;4.332;2023-02-13T13:40:36;12.52;;;4.50;;
24151;SDS011;12311;50.866;4.332;2023-02-13T13:43:18;8.77;;;4.07;;
24151;SDS011;12311;50.866;4.332;2023-02-13T13:51:03;12.55;;;3.95;;
24151;SDS011;12311;50.866;4.332;2023-02-13T13:53:31;10.43;;;4.18;;
24151;SDS011;12311;50.866;4.332;2023-02-13T13:55:58;9.73;;;3.50;;
24151;SDS011;12311;50.866;4.332;2023-02-13T14:06:18;9.15;;;4.22;;
24151;SDS011;12311;50.866;4.332;2023-02-13T14:08:53;9.32;;;4.10;;
24151;SDS011;12311;50.866;4.332;2023-02-13T14:11:34;7.28;;;3.33;;
24151;SDS011;12311;50.866;4.332;2023-02-13T14:16:56;10.57;;;3.70;;
24151;SDS011;12311;50.866;4.332;2023-02-13T14:19:24;10.40;;;4.03;;
24151;SDS011;12311;50.866;4.332;2023-02-13T14:25:06;7.65;;;3.17;;
24151;SDS011;12311;50.866;4.332;2023-02-13T14:27:50;8.55;;;3.22;;
24151;SDS011;12311;50.866;4.332;2023-02-13T14:32:57;7.35;;;3.47;;
24151;SDS011;12311;50.866;4.332;2023-02-13T14:35:27;8.10;;;3.10;;
24151;SDS011;12311;50.866;4.332;2023-02-13T14:37:59;7.18;;;2.78;;
24151;SDS011;12311;50.866;4.332;2023-02-13T14:40:28;10.52;;;3.25;;
24151;SDS011;12311;50.866;4.332;2023-02-13T14:43:29;9.13;;;3.95;;
24151;SDS011;12311;50.866;4.332;2023-02-13T14:46:16;13.95;;;4.28;;
24151;SDS011;12311;50.866;4.332;2023-02-13T14:51:28;5.78;;;2.65;;
24151;SDS011;12311;50.866;4.332;2023-02-13T14:56:39;6.35;;;2.97;;
24151;SDS011;12311;50.866;4.332;2023-02-13T14:59:09;9.38;;;2.95;;
24151;SDS011;12311;50.866;4.332;2023-02-13T15:02:01;7.20;;;3.20;;
24151;SDS011;12311;50.866;4.332;2023-02-13T15:06:56;8.50;;;2.40;;
24151;SDS011;12311;50.866;4.332;2023-02-13T15:09:28;6.88;;;2.80;;
24151;SDS011;12311;50.866;4.332;2023-02-13T15:11:56;6.90;;;3.22;;
24151;SDS011;12311;50.866;4.332;2023-02-13T15:17:43;6.30;;;3.00;;
24151;SDS011;12311;50.866;4.332;2023-02-13T15:19:53;8.90;;;2.22;;
24151;SDS011;12311;50.866;4.332;2023-02-13T15:22:35;6.95;;;3.10;;
24151;SDS011;12311;50.866;4.332;2023-02-13T15:25:03;6.13;;;2.47;;
24151;SDS011;12311;50.866;4.332;2023-02-13T15:27:31;15.10;;;2.90;;
24151;SDS011;12311;50.866;4.332;2023-02-13T15:30:24;7.55;;;2.75;;
24151;SDS011;12311;50.866;4.332;2023-02-13T15:32:54;7.85;;;2.75;;
24151;SDS011;12311;50.866;4.332;2023-02-13T15:37:48;7.32;;;2.70;;
24151;SDS011;12311;50.866;4.332;2023-02-13T15:40:22;6.63;;;3.47;;
24151;SDS011;12311;50.866;4.332;2023-02-13T15:42:51;5.95;;;3.28;;
24151;SDS011;12311;50.866;4.332;2023-02-13T15:45:17;9.30;;;3.42;;
24151;SDS011;12311;50.866;4.332;2023-02-13T15:47:45;7.57;;;2.72;;
24151;SDS011;12311;50.866;4.332;2023-02-13T15:50:15;7.18;;;3.15;;
24151;SDS011;12311;50.866;4.332;2023-02-13T15:52:53;7.63;;;2.65;;
24151;SDS011;12311;50.866;4.332;2023-02-13T15:55:23;5.43;;;2.17;;
24151;SDS011;12311;50.866;4.332;2023-02-13T15:57:53;7.38;;;2.53;;
24151;SDS011;12311;50.866;4.332;2023-02-13T16:00:32;8.30;;;2.80;;
24151;SDS011;12311;50.866;4.332;2023-02-13T16:03:00;10.15;;;3.65;;
24151;SDS011;12311;50.866;4.332;2023-02-13T16:05:29;7.95;;;3.13;;
24151;SDS011;12311;50.866;4.332;2023-02-13T16:08:00;9.10;;;3.38;;
24151;SDS011;12311;50.866;4.332;2023-02-13T16:10:30;6.43;;;2.42;;
24151;SDS011;12311;50.866;4.332;2023-02-13T16:12:58;7.95;;;3.17;;
24151;SDS011;12311;50.866;4.332;2023-02-13T16:15:29;8.10;;;3.17;;
24151;SDS011;12311;50.866;4.332;2023-02-13T16:17:56;6.90;;;2.92;;
24151;SDS011;12311;50.866;4.332;2023-02-13T16:20:23;6.57;;;3.10;;
24151;SDS011;12311;50.866;4.332;2023-02-13T16:22:55;5.63;;;2.70;;
24151;SDS011;12311;50.866;4.332;2023-02-13T16:25:27;11.27;;;3.25;;
24151;SDS011;12311;50.866;4.332;2023-02-13T16:28:02;9.20;;;2.83;;
24151;SDS011;12311;50.866;4.332;2023-02-13T16:38:30;8.85;;;2.60;;
24151;SDS011;12311;50.866;4.332;2023-02-13T16:43:50;7.65;;;2.88;;
24151;SDS011;12311;50.866;4.332;2023-02-13T16:56:40;6.13;;;2.78;;
24151;SDS011;12311;50.866;4.332;2023-02-13T16:59:20;6.47;;;3.13;;
24151;SDS011;12311;50.866;4.332;2023-02-13T17:07:27;8.30;;;3.80;;
24151;SDS011;12311;50.866;4.332;2023-02-13T17:12:22;11.98;;;3.28;;
24151;SDS011;12311;50.866;4.332;2023-02-13T17:14:48;11.65;;;3.85;;
24151;SDS011;12311;50.866;4.332;2023-02-13T17:17:15;12.57;;;4.07;;
24151;SDS011;12311;50.866;4.332;2023-02-13T17:19:43;9.07;;;3.33;;
24151;SDS011;12311;50.866;4.332;2023-02-13T17:25:08;10.15;;;4.30;;
24151;SDS011;12311;50.866;4.332;2023-02-13T17:27:41;12.20;;;5.38;;
24151;SDS011;12311;50.866;4.332;2023-02-13T17:30:13;9.02;;;4.65;;
24151;SDS011;12311;50.866;4.332;2023-02-13T17:35:09;9.68;;;3.40;;
24151;SDS011;12311;50.866;4.332;2023-02-13T17:37:35;10.48;;;4.15;;
24151;SDS011;12311;50.866;4.332;2023-02-13T17:40:02;12.13;;;4.00;;
24151;SDS011;12311;50.866;4.332;2023-02-13T17:42:28;10.23;;;3.80;;
24151;SDS011;12311;50.866;4.332;2023-02-13T17:44:55;7.97;;;3.72;;
24151;SDS011;12311;50.866;4.332;2023-02-13T17:47:22;7.93;;;4.10;;
24151;SDS011;12311;50.866;4.332;2023-02-13T17:49:50;9.27;;;4.35;;
24151;SDS011;12311;50.866;4.332;2023-02-13T17:52:20;10.75;;;3.42;;
24151;SDS011;12311;50.866;4.332;2023-02-13T17:54:49;13.20;;;4.15;;
24151;SDS011;12311;50.866;4.332;2023-02-13T17:57:16;10.32;;;3.70;;
24151;SDS011;12311;50.866;4.332;2023-02-13T17:59:42;8.82;;;4.00;;
24151;SDS011;12311;50.866;4.332;2023-02-13T18:02:22;9.70;;;3.47;;
24151;SDS011;12311;50.866;4.332;2023-02-13T18:04:50;11.30;;;4.53;;
24151;SDS011;12311;50.866;4.332;2023-02-13T18:07:17;9.13;;;4.15;;
24151;SDS011;12311;50.866;4.332;2023-02-13T18:09:44;11.10;;;4.32;;
24151;SDS011;12311;50.866;4.332;2023-02-13T18:12:14;11.85;;;4.47;;
24151;SDS011;12311;50.866;4.332;2023-02-13T18:14:45;14.43;;;5.43;;
24151;SDS011;12311;50.866;4.332;2023-02-13T18:17:11;8.50;;;3.67;;
24151;SDS011;12311;50.866;4.332;2023-02-13T18:19:38;14.90;;;5.38;;
24151;SDS011;12311;50.866;4.332;2023-02-13T18:22:04;21.10;;;6.65;;
24151;SDS011;12311;50.866;4.332;2023-02-13T18:24:32;14.25;;;5.70;;
24151;SDS011;12311;50.866;4.332;2023-02-13T18:26:59;14.77;;;5.63;;